createdAt,value
2017-11-11T00:00:21.779Z,87.6
2017-11-11T00:01:24.205Z,87.6
2017-11-11T00:02:27.340Z,87.6
2017-11-11T00:03:29.806Z,87.7
2017-11-11T00:04:32.202Z,87.8
2017-11-11T00:05:34.966Z,87.6
2017-11-11T00:06:37.393Z,87.6
2017-11-11T00:07:39.808Z,87.6
2017-11-11T00:08:42.231Z,87.4
2017-11-11T00:09:44.653Z,87.2
2017-11-11T00:10:47.069Z,87.3
2017-11-11T00:11:49.500Z,87.6
2017-11-11T00:12:51.919Z,87.7
2017-11-11T00:13:54.344Z,87.5
2017-11-11T00:14:57.111Z,87.4
2017-11-11T00:15:59.532Z,87.5
2017-11-11T00:17:02.335Z,87.2
2017-11-11T00:18:05.136Z,87.1
2017-11-11T00:19:07.772Z,87.2
2017-11-11T00:20:10.194Z,87.4
2017-11-11T00:21:12.607Z,87.3
2017-11-11T00:22:15.033Z,87.4
2017-11-11T00:23:17.456Z,87.4
2017-11-11T00:24:19.884Z,87.3
2017-11-11T00:25:22.298Z,87.5
2017-11-11T00:26:24.718Z,87.6
2017-11-11T00:27:27.140Z,87.5
2017-11-11T00:28:29.573Z,87.4
2017-11-11T00:29:32.009Z,87.3
2017-11-11T00:30:34.413Z,87.2
2017-11-11T00:31:36.851Z,87.4
2017-11-11T00:32:39.631Z,87.6
2017-11-11T00:33:42.049Z,87.5
2017-11-11T00:34:44.473Z,87.4
2017-11-11T00:35:46.902Z,87.2
2017-11-11T00:36:49.310Z,87.3
2017-11-11T00:37:51.749Z,87.4
2017-11-11T00:38:54.166Z,87.6
2017-11-11T00:39:56.592Z,87.6
2017-11-11T00:40:59.016Z,87.8
2017-11-11T00:42:01.445Z,87.9
2017-11-11T00:43:04.227Z,87.6
2017-11-11T00:44:07.017Z,87.3
2017-11-11T00:45:09.431Z,87.5
2017-11-11T00:46:11.862Z,87.4
2017-11-11T00:47:14.331Z,87.6
2017-11-11T00:48:16.773Z,87.9
2017-11-11T00:49:19.206Z,88
2017-11-11T00:50:21.637Z,87.8
2017-11-11T00:51:24.050Z,87.9
2017-11-11T00:52:26.476Z,87.7
2017-11-11T00:53:28.886Z,87.7
2017-11-11T00:54:31.665Z,87.5
2017-11-11T00:55:34.086Z,87.8
2017-11-11T00:56:36.511Z,87.9
2017-11-11T00:57:39.294Z,87.6
2017-11-11T00:58:41.726Z,87.9
2017-11-11T00:59:44.148Z,87.9
2017-11-11T01:00:46.576Z,87.9
2017-11-11T01:01:49.033Z,87.9
2017-11-11T01:02:51.446Z,87.7
2017-11-11T01:03:53.896Z,87.9
2017-11-11T01:04:56.323Z,87.8
2017-11-11T01:05:58.731Z,88
2017-11-11T01:07:01.506Z,87.8
2017-11-11T01:08:03.929Z,87.8
2017-11-11T01:09:06.358Z,87.9
2017-11-11T01:10:08.785Z,87.9
2017-11-11T01:11:11.207Z,88
2017-11-11T01:12:13.626Z,88
2017-11-11T01:13:16.056Z,88
2017-11-11T01:14:18.475Z,87.9
2017-11-11T01:15:20.901Z,88
2017-11-11T01:16:23.320Z,87.9
2017-11-11T01:17:25.748Z,87.9
2017-11-11T01:18:28.183Z,88.1
2017-11-11T01:19:30.604Z,88.4
2017-11-11T01:20:33.025Z,88.8
2017-11-11T01:21:35.446Z,89.1
2017-11-11T01:22:37.868Z,89.4
2017-11-11T01:23:40.299Z,89.5
2017-11-11T01:24:42.717Z,89.3
2017-11-11T01:25:45.506Z,89.4
2017-11-11T01:26:48.273Z,89.5
2017-11-11T01:27:50.709Z,89.7
2017-11-11T01:28:53.137Z,89.9
2017-11-11T01:29:55.547Z,89.6
2017-11-11T01:30:57.977Z,89.7
2017-11-11T01:32:00.398Z,89.7
2017-11-11T01:33:02.821Z,89.6
2017-11-11T01:34:05.245Z,89.3
2017-11-11T01:35:07.667Z,89.5
2017-11-11T01:36:10.092Z,89.4
2017-11-11T01:37:12.880Z,89.4
2017-11-11T01:38:15.663Z,89.6
2017-11-11T01:39:18.100Z,89.8
2017-11-11T01:40:20.910Z,89.9
2017-11-11T01:41:23.324Z,89.9
2017-11-11T01:42:25.746Z,89.8
2017-11-11T01:43:28.175Z,89.8
2017-11-11T01:44:30.586Z,90
2017-11-11T01:45:33.010Z,90
2017-11-11T01:46:35.439Z,90.1
2017-11-11T01:47:38.223Z,90.1
2017-11-11T01:48:40.640Z,90.1
2017-11-11T01:49:43.415Z,90
2017-11-11T01:50:45.825Z,90.1
2017-11-11T01:51:48.264Z,90
2017-11-11T01:52:50.681Z,90
2017-11-11T01:53:53.112Z,89.7
2017-11-11T01:54:55.535Z,89.8
2017-11-11T01:55:57.945Z,90
2017-11-11T01:57:00.372Z,90
2017-11-11T01:58:02.793Z,90.1
2017-11-11T01:59:05.221Z,90.1
2017-11-11T02:00:07.643Z,90.1
2017-11-11T02:01:10.045Z,90.2
2017-11-11T02:02:12.476Z,90.2
2017-11-11T02:03:14.892Z,90.2
2017-11-11T02:04:17.321Z,90.1
2017-11-11T02:05:19.750Z,90.2
2017-11-11T02:06:22.526Z,90.2
2017-11-11T02:07:24.943Z,90.2
2017-11-11T02:08:27.381Z,90.3
2017-11-11T02:09:29.797Z,90.4
2017-11-11T02:10:32.583Z,90.4
2017-11-11T02:11:34.999Z,90.4
2017-11-11T02:12:37.437Z,90.4
2017-11-11T02:13:39.861Z,90.4
2017-11-11T02:14:42.307Z,90.4
2017-11-11T02:15:45.097Z,90.4
2017-11-11T02:16:47.515Z,90.3
2017-11-11T02:17:49.939Z,90.4
2017-11-11T02:18:52.362Z,90.3
2017-11-11T02:19:54.782Z,90.3
2017-11-11T02:20:57.206Z,90.3
2017-11-11T02:21:59.623Z,90.3
2017-11-11T02:23:02.052Z,90.2
2017-11-11T02:24:04.833Z,90
2017-11-11T02:25:07.256Z,90.1
2017-11-11T02:26:09.668Z,90
2017-11-11T02:27:12.105Z,90.1
2017-11-11T02:28:14.536Z,90
2017-11-11T02:29:17.108Z,90.1
2017-11-11T02:30:19.553Z,90.2
2017-11-11T02:31:22.413Z,90.3
2017-11-11T02:32:25.206Z,90.3
2017-11-11T02:33:28.063Z,90.2
2017-11-11T02:34:30.516Z,90.2
2017-11-11T02:35:32.966Z,90.1
2017-11-11T02:36:35.447Z,90.2
2017-11-11T02:37:37.930Z,90.2
2017-11-11T02:38:40.379Z,90.2
2017-11-11T02:39:42.801Z,90.3
2017-11-11T02:40:45.645Z,90.2
2017-11-11T02:41:48.147Z,90
2017-11-11T02:42:50.568Z,90.1
2017-11-11T02:43:53.090Z,90.2
2017-11-11T02:44:55.540Z,90.1
2017-11-11T02:45:57.961Z,90.2
2017-11-11T02:47:00.461Z,90.2
2017-11-11T02:48:02.987Z,90.1
2017-11-11T02:49:06.167Z,90.1
2017-11-11T02:50:08.722Z,90.1
2017-11-11T02:51:11.529Z,90.2
2017-11-11T02:52:14.337Z,90.2
2017-11-11T02:53:17.165Z,90.3
2017-11-11T02:54:19.664Z,90.3
2017-11-11T02:55:22.442Z,90.3
2017-11-11T02:56:25.245Z,90.3
2017-11-11T02:57:27.689Z,90.2
2017-11-11T02:58:30.154Z,90.1
2017-11-11T02:59:32.595Z,90.1
2017-11-11T03:00:35.469Z,90.1
2017-11-11T03:01:38.276Z,90.2
2017-11-11T03:02:40.729Z,90.2
2017-11-11T03:03:43.546Z,90.2
2017-11-11T03:04:45.962Z,90.2
2017-11-11T03:05:48.402Z,90.1
2017-11-11T03:06:50.900Z,90.2
2017-11-11T03:07:53.319Z,90.1
2017-11-11T03:08:55.757Z,90.1
2017-11-11T03:09:58.309Z,90.2
2017-11-11T03:11:00.854Z,90.3
2017-11-11T03:12:03.339Z,90.2
2017-11-11T03:13:05.782Z,90.3
2017-11-11T03:14:08.213Z,90.3
2017-11-11T03:15:10.686Z,90.2
2017-11-11T03:16:13.121Z,90.1
2017-11-11T03:17:15.976Z,90.2
2017-11-11T03:18:18.477Z,90.2
2017-11-11T03:19:20.908Z,90.1
2017-11-11T03:20:23.348Z,90.1
2017-11-11T03:21:25.792Z,90.1
2017-11-11T03:22:28.296Z,90.2
2017-11-11T03:23:30.714Z,90.2
2017-11-11T03:24:33.152Z,90.2
2017-11-11T03:25:35.635Z,90.2
2017-11-11T03:26:38.065Z,90.2
2017-11-11T03:27:40.496Z,90.2
2017-11-11T03:28:42.959Z,90.2
2017-11-11T03:29:45.385Z,90.2
2017-11-11T03:30:47.874Z,90.4
2017-11-11T03:31:50.384Z,90.5
2017-11-11T03:32:52.890Z,90.5
2017-11-11T03:33:55.298Z,90.5
2017-11-11T03:34:57.752Z,90.4
2017-11-11T03:36:00.202Z,90.3
2017-11-11T03:37:02.638Z,90.4
2017-11-11T03:38:05.061Z,90.3
2017-11-11T03:39:07.845Z,90.4
2017-11-11T03:40:10.267Z,90.4
2017-11-11T03:41:12.708Z,90.4
2017-11-11T03:42:15.117Z,90.2
2017-11-11T03:43:17.536Z,90.3
2017-11-11T03:44:19.951Z,90.2
2017-11-11T03:45:22.379Z,90.3
2017-11-11T03:46:24.797Z,90.4
2017-11-11T03:47:27.225Z,90.4
2017-11-11T03:48:29.633Z,90.3
2017-11-11T03:49:32.063Z,90.3
2017-11-11T03:50:34.836Z,90.3
2017-11-11T03:51:37.280Z,90.4
2017-11-11T03:52:39.702Z,90.4
2017-11-11T03:53:42.129Z,90.4
2017-11-11T03:54:44.557Z,90.4
2017-11-11T03:55:46.980Z,90.3
2017-11-11T03:56:49.405Z,90.4
2017-11-11T03:57:51.819Z,90.4
2017-11-11T03:58:54.234Z,90.4
2017-11-11T03:59:56.668Z,90.2
2017-11-11T04:00:59.086Z,90.2
2017-11-11T04:02:01.502Z,90.3
2017-11-11T04:03:04.277Z,90.4
2017-11-11T04:04:06.690Z,90.4
2017-11-11T04:05:09.115Z,90.4
2017-11-11T04:06:11.551Z,90.4
2017-11-11T04:07:13.946Z,90.4
2017-11-11T04:08:16.740Z,90.5
2017-11-11T04:09:19.166Z,90.6
2017-11-11T04:10:21.971Z,90.4
2017-11-11T04:11:24.397Z,90.4
2017-11-11T04:12:27.157Z,90.4
2017-11-11T04:13:29.580Z,90.4
2017-11-11T04:14:32.371Z,90.3
2017-11-11T04:15:34.791Z,90.4
2017-11-11T04:16:37.217Z,90.6
2017-11-11T04:17:39.634Z,90.5
2017-11-11T04:18:42.416Z,90.5
2017-11-11T04:19:44.836Z,90.5
2017-11-11T04:20:47.257Z,90.4
2017-11-11T04:21:50.033Z,90.4
2017-11-11T04:22:52.809Z,90.5
2017-11-11T04:23:55.230Z,90.5
2017-11-11T04:24:57.655Z,90.5
2017-11-11T04:26:00.076Z,90.5
2017-11-11T04:27:02.499Z,90.6
2017-11-11T04:28:04.917Z,90.6
2017-11-11T04:29:07.335Z,90.7
2017-11-11T04:30:10.139Z,90.6
2017-11-11T04:31:12.580Z,90.5
2017-11-11T04:32:14.999Z,90.4
2017-11-11T04:33:17.760Z,90.4
2017-11-11T04:34:20.555Z,90.3
2017-11-11T04:35:22.973Z,90.3
2017-11-11T04:36:25.403Z,90.4
2017-11-11T04:37:27.817Z,90.5
2017-11-11T04:38:30.227Z,90.3
2017-11-11T04:39:32.652Z,90.2
2017-11-11T04:40:35.107Z,90.3
2017-11-11T04:41:37.520Z,90.2
2017-11-11T04:42:39.942Z,90.3
2017-11-11T04:43:42.361Z,90.3
2017-11-11T04:44:44.775Z,90.2
2017-11-11T04:45:47.207Z,90.2
2017-11-11T04:46:49.633Z,90.2
2017-11-11T04:47:52.044Z,90.2
2017-11-11T04:48:54.474Z,90.2
2017-11-11T04:49:56.931Z,90.3
2017-11-11T04:50:59.358Z,90.1
2017-11-11T04:52:01.781Z,90.3
2017-11-11T04:53:04.189Z,90.3
2017-11-11T04:54:06.602Z,90.3
2017-11-11T04:55:09.039Z,90.3
2017-11-11T04:56:11.462Z,90.4
2017-11-11T04:57:13.866Z,90.3
2017-11-11T04:58:16.297Z,90.3
2017-11-11T04:59:18.719Z,90.3
2017-11-11T05:00:21.142Z,90.4
2017-11-11T05:01:23.915Z,90.5
2017-11-11T05:02:26.346Z,90.5
2017-11-11T05:03:28.752Z,90.4
2017-11-11T05:04:31.547Z,90.3
2017-11-11T05:05:34.665Z,90.3
2017-11-11T05:06:37.079Z,90.5
2017-11-11T05:07:39.504Z,90.3
2017-11-11T05:08:41.925Z,90.4
2017-11-11T05:09:44.343Z,90.4
2017-11-11T05:10:46.771Z,90.5
2017-11-11T05:11:49.185Z,90.5
2017-11-11T05:12:51.610Z,90.5
2017-11-11T05:13:54.034Z,90.4
2017-11-11T05:14:56.464Z,90.4
2017-11-11T05:15:58.882Z,90.4
2017-11-11T05:17:01.307Z,90.3
2017-11-11T05:18:03.723Z,90.2
2017-11-11T05:19:06.153Z,90.1
2017-11-11T05:20:08.566Z,90.3
2017-11-11T05:21:10.981Z,90.3
2017-11-11T05:22:13.405Z,90.2
2017-11-11T05:23:15.816Z,90.3
2017-11-11T05:24:18.232Z,90.3
2017-11-11T05:25:20.662Z,90.2
2017-11-11T05:26:23.081Z,90.3
2017-11-11T05:27:25.517Z,90.3
2017-11-11T05:28:27.933Z,90.3
2017-11-11T05:29:30.350Z,90.4
2017-11-11T05:30:32.777Z,90.4
2017-11-11T05:31:35.932Z,90.4
2017-11-11T05:32:38.416Z,90.4
2017-11-11T05:33:40.838Z,90.4
2017-11-11T05:34:43.263Z,90.4
2017-11-11T05:35:45.688Z,90.4
2017-11-11T05:36:48.108Z,90.4
2017-11-11T05:37:50.535Z,90.4
2017-11-11T05:38:52.946Z,90.5
2017-11-11T05:39:55.368Z,90.5
2017-11-11T05:40:57.787Z,90.4
2017-11-11T05:42:00.208Z,90.3
2017-11-11T05:43:02.625Z,90.3
2017-11-11T05:44:05.055Z,90.5
2017-11-11T05:45:07.473Z,90.4
2017-11-11T05:46:09.903Z,90.4
2017-11-11T05:47:12.324Z,90.2
2017-11-11T05:48:14.748Z,90.2
2017-11-11T05:49:17.171Z,90.4
2017-11-11T05:50:19.599Z,90.5
2017-11-11T05:51:22.011Z,90.6
2017-11-11T05:52:24.438Z,90.5
2017-11-11T05:53:26.844Z,90.4
2017-11-11T05:54:29.275Z,90.4
2017-11-11T05:55:32.058Z,90.4
2017-11-11T05:56:34.461Z,90.4
2017-11-11T05:57:36.894Z,90.5
2017-11-11T05:58:39.299Z,90.5
2017-11-11T05:59:42.081Z,90.5
2017-11-11T06:00:44.859Z,90.5
2017-11-11T06:01:47.644Z,90.4
2017-11-11T06:02:50.066Z,90.5
2017-11-11T06:03:52.503Z,90.5
2017-11-11T06:04:54.921Z,90.6
2017-11-11T06:05:57.342Z,90.6
2017-11-11T06:06:59.763Z,90.2
2017-11-11T06:08:02.182Z,90.1
2017-11-11T06:09:04.610Z,90.3
2017-11-11T06:10:07.027Z,90.4
2017-11-11T06:11:09.431Z,90.6
2017-11-11T06:12:11.859Z,90.7
2017-11-11T06:13:14.677Z,90.7
2017-11-11T06:14:17.086Z,90.4
2017-11-11T06:15:19.514Z,90.4
2017-11-11T06:16:21.929Z,90.3
2017-11-11T06:17:24.348Z,90.4
2017-11-11T06:18:26.787Z,90.4
2017-11-11T06:19:29.558Z,90.4
2017-11-11T06:20:31.977Z,90.4
2017-11-11T06:21:34.826Z,90.4
2017-11-11T06:22:37.244Z,90.4
2017-11-11T06:23:39.669Z,90.3
2017-11-11T06:24:42.089Z,90.3
2017-11-11T06:25:44.498Z,90.2
2017-11-11T06:26:46.920Z,90.2
2017-11-11T06:27:49.335Z,90.4
2017-11-11T06:28:52.128Z,90.4
2017-11-11T06:29:54.900Z,90.4
2017-11-11T06:30:57.327Z,90.5
2017-11-11T06:31:59.756Z,90.5
2017-11-11T06:33:02.179Z,90.4
2017-11-11T06:34:04.616Z,90.5
2017-11-11T06:35:07.033Z,90.5
2017-11-11T06:36:09.445Z,90.4
2017-11-11T06:37:11.882Z,90.4
2017-11-11T06:38:14.308Z,90.4
2017-11-11T06:39:16.720Z,90.2
2017-11-11T06:40:19.132Z,90.3
2017-11-11T06:41:21.559Z,90.3
2017-11-11T06:42:24.009Z,90.1
2017-11-11T06:43:26.405Z,90.2
2017-11-11T06:44:28.814Z,90.3
2017-11-11T06:45:31.234Z,90.4
2017-11-11T06:46:33.648Z,90.5
2017-11-11T06:47:36.074Z,90.4
2017-11-11T06:48:38.495Z,90.3
2017-11-11T06:49:40.914Z,90.2
2017-11-11T06:50:43.335Z,90.4
2017-11-11T06:51:46.123Z,90.4
2017-11-11T06:52:48.545Z,90.4
2017-11-11T06:53:50.966Z,90.4
2017-11-11T06:54:53.383Z,90.3
2017-11-11T06:55:56.168Z,90.4
2017-11-11T06:56:58.589Z,90.5
2017-11-11T06:58:01.014Z,90.6
2017-11-11T06:59:03.441Z,90.5
2017-11-11T07:00:05.866Z,90.4
2017-11-11T07:01:08.281Z,90.3
2017-11-11T07:02:10.707Z,90.3
2017-11-11T07:03:13.483Z,90.6
2017-11-11T07:04:15.901Z,90.6
2017-11-11T07:05:18.318Z,90.5
2017-11-11T07:06:20.741Z,90.4
2017-11-11T07:07:23.160Z,90.5
2017-11-11T07:08:25.587Z,90.5
2017-11-11T07:09:27.996Z,90.6
2017-11-11T07:10:30.422Z,90.4
2017-11-11T07:11:32.840Z,90.4
2017-11-11T07:12:35.267Z,90.5
2017-11-11T07:13:37.693Z,90.5
2017-11-11T07:14:40.472Z,90.6
2017-11-11T07:15:42.884Z,90.6
2017-11-11T07:16:45.380Z,90.6
2017-11-11T07:17:47.805Z,90.5
2017-11-11T07:18:50.587Z,90.5
2017-11-11T07:19:53.017Z,90.5
2017-11-11T07:20:55.435Z,90.5
2017-11-11T07:21:57.854Z,90.5
2017-11-11T07:23:00.279Z,90.5
2017-11-11T07:24:02.705Z,90.4
2017-11-11T07:25:05.104Z,90.4
2017-11-11T07:26:07.537Z,90.6
2017-11-11T07:27:09.974Z,90.4
2017-11-11T07:28:12.391Z,90.2
2017-11-11T07:29:14.807Z,90.4
2017-11-11T07:30:17.227Z,90.4
2017-11-11T07:31:19.649Z,90.3
2017-11-11T07:32:22.079Z,90.4
2017-11-11T07:33:24.500Z,90.6
2017-11-11T07:34:26.906Z,90.6
2017-11-11T07:35:29.327Z,90.6
2017-11-11T07:36:31.758Z,90.5
2017-11-11T07:37:34.184Z,90.5
2017-11-11T07:38:36.610Z,90.7
2017-11-11T07:39:39.020Z,90.7
2017-11-11T07:40:41.435Z,90.8
2017-11-11T07:41:43.873Z,90.6
2017-11-11T07:42:46.290Z,90.6
2017-11-11T07:43:49.491Z,90.6
2017-11-11T07:44:51.918Z,90.6
2017-11-11T07:45:54.344Z,90.7
2017-11-11T07:46:57.126Z,90.7
2017-11-11T07:47:59.549Z,90.6
2017-11-11T07:49:01.960Z,90.4
2017-11-11T07:50:04.381Z,90.5
2017-11-11T07:51:06.806Z,90.5
2017-11-11T07:52:09.225Z,90.5
2017-11-11T07:53:11.642Z,90.6
2017-11-11T07:54:14.066Z,90.4
2017-11-11T07:55:16.494Z,90.5
2017-11-11T07:56:18.908Z,90.5
2017-11-11T07:57:21.333Z,90.3
2017-11-11T07:58:23.752Z,90.4
2017-11-11T07:59:26.173Z,90.5
2017-11-11T08:00:28.585Z,90.5
2017-11-11T08:01:31.013Z,90.5
2017-11-11T08:02:33.433Z,90.5
2017-11-11T08:03:35.853Z,90.5
2017-11-11T08:04:38.276Z,90.5
2017-11-11T08:05:40.694Z,90.6
2017-11-11T08:06:43.116Z,90.5
2017-11-11T08:07:45.556Z,90.5
2017-11-11T08:08:47.968Z,90.4
2017-11-11T08:09:50.760Z,90.5
2017-11-11T08:10:53.183Z,90.5
2017-11-11T08:11:55.610Z,90.5
2017-11-11T08:12:58.385Z,90.5
2017-11-11T08:14:00.818Z,90.6
2017-11-11T08:15:03.602Z,90.6
2017-11-11T08:16:06.046Z,90.6
2017-11-11T08:17:08.488Z,90.5
2017-11-11T08:18:10.913Z,90.4
2017-11-11T08:19:13.686Z,90.3
2017-11-11T08:20:16.463Z,90.3
2017-11-11T08:21:19.232Z,90.4
2017-11-11T08:22:21.662Z,90.3
2017-11-11T08:23:24.087Z,90.3
2017-11-11T08:24:26.503Z,90.5
2017-11-11T08:25:28.945Z,90.5
2017-11-11T08:26:31.729Z,90.6
2017-11-11T08:27:34.151Z,90.5
2017-11-11T08:28:36.930Z,90.5
2017-11-11T08:29:39.350Z,90.6
2017-11-11T08:30:41.770Z,90.6
2017-11-11T08:31:44.566Z,90.6
2017-11-11T08:32:46.985Z,90.7
2017-11-11T08:33:49.401Z,90.8
2017-11-11T08:34:52.188Z,90.7
2017-11-11T08:35:54.610Z,90.7
2017-11-11T08:36:57.025Z,90.8
2017-11-11T08:37:59.449Z,90.7
2017-11-11T08:39:01.865Z,90.5
2017-11-11T08:40:04.286Z,90.7
2017-11-11T08:41:06.721Z,90.7
2017-11-11T08:42:09.146Z,90.6
2017-11-11T08:43:11.558Z,90.6
2017-11-11T08:44:13.981Z,90.7
2017-11-11T08:45:16.772Z,90.7
2017-11-11T08:46:19.202Z,90.7
2017-11-11T08:47:21.619Z,90.7
2017-11-11T08:48:24.027Z,90.8
2017-11-11T08:49:26.461Z,90.7
2017-11-11T08:50:29.250Z,90.7
2017-11-11T08:51:31.663Z,90.8
2017-11-11T08:52:34.087Z,90.5
2017-11-11T08:53:36.513Z,90.4
2017-11-11T08:54:39.297Z,90.8
2017-11-11T08:55:41.714Z,90.4
2017-11-11T08:56:44.139Z,90.3
2017-11-11T08:57:46.557Z,90.3
2017-11-11T08:58:48.973Z,90.3
2017-11-11T08:59:51.394Z,90.3
2017-11-11T09:00:53.810Z,90.1
2017-11-11T09:01:56.244Z,90.2
2017-11-11T09:02:58.678Z,90.3
2017-11-11T09:04:01.117Z,90.6
2017-11-11T09:05:04.285Z,90.5
2017-11-11T09:06:06.723Z,90.6
2017-11-11T09:07:09.207Z,90.5
2017-11-11T09:08:11.637Z,90.4
2017-11-11T09:09:14.090Z,90.5
2017-11-11T09:10:16.500Z,90.3
2017-11-11T09:11:19.100Z,90.4
2017-11-11T09:12:21.541Z,90.3
2017-11-11T09:13:23.973Z,90.4
2017-11-11T09:14:26.814Z,90.2
2017-11-11T09:15:29.783Z,90.1
2017-11-11T09:16:32.572Z,90.1
2017-11-11T09:17:42.006Z,90.2
2017-11-11T09:18:44.377Z,90.4
2017-11-11T09:19:47.099Z,90.4
2017-11-11T09:20:49.474Z,90.4
2017-11-11T09:21:51.856Z,90.4
2017-11-11T09:22:54.590Z,90.5
2017-11-11T09:23:56.950Z,90.3
2017-11-11T09:24:59.320Z,90.4
2017-11-11T09:26:01.691Z,90.5
2017-11-11T09:27:04.049Z,90.5
2017-11-11T09:28:06.423Z,90.3
2017-11-11T09:29:08.790Z,90.5
2017-11-11T09:30:11.170Z,90.4
2017-11-11T09:31:14.261Z,90.4
2017-11-11T09:32:16.633Z,90.3
2017-11-11T09:33:18.993Z,90.2
2017-11-11T09:34:21.366Z,90.2
2017-11-11T09:35:23.726Z,90.1
2017-11-11T09:36:26.817Z,90.2
2017-11-11T09:37:29.539Z,90.3
2017-11-11T09:38:31.904Z,90.4
2017-11-11T09:39:34.283Z,90.4
2017-11-11T09:40:36.657Z,90.1
2017-11-11T09:41:39.027Z,90.3
2017-11-11T09:42:41.399Z,90.3
2017-11-11T09:43:43.764Z,90.3
2017-11-11T09:44:46.134Z,90.3
2017-11-11T09:45:48.517Z,90.3
2017-11-11T09:46:51.240Z,90
2017-11-11T09:47:53.605Z,90.1
2017-11-11T09:48:55.983Z,90.3
2017-11-11T09:49:58.361Z,90.3
2017-11-11T09:51:00.733Z,90.3
2017-11-11T09:52:03.111Z,90.3
2017-11-11T09:53:05.487Z,90.3
2017-11-11T09:54:08.212Z,90.4
2017-11-11T09:55:10.571Z,90.4
2017-11-11T09:56:12.961Z,90.4
2017-11-11T09:57:15.335Z,90.4
2017-11-11T09:58:17.726Z,90.4
2017-11-11T09:59:20.096Z,90.2
2017-11-11T10:00:22.472Z,90.1
2017-11-11T10:01:24.846Z,90.2
2017-11-11T10:02:27.220Z,90.2
2017-11-11T10:03:29.586Z,90.1
2017-11-11T10:04:31.948Z,90.1
2017-11-11T10:05:34.320Z,90
2017-11-11T10:06:36.698Z,90
2017-11-11T10:07:39.070Z,89.8
2017-11-11T10:08:41.441Z,89.8
2017-11-11T10:09:46.935Z,90
2017-11-11T10:10:50.058Z,90.1
2017-11-11T10:11:53.075Z,90.1
2017-11-11T10:12:55.887Z,90.2
2017-11-11T10:13:58.339Z,90.3
2017-11-11T10:15:00.756Z,90.3
2017-11-11T10:16:03.189Z,90.3
2017-11-11T10:17:05.999Z,90.2
2017-11-11T10:18:08.473Z,90.2
2017-11-11T10:19:11.267Z,90.1
2017-11-11T10:20:13.706Z,89.9
2017-11-11T10:21:16.121Z,90
2017-11-11T10:22:18.584Z,90
2017-11-11T10:23:20.991Z,89.5
2017-11-11T10:24:23.786Z,89.9
2017-11-11T10:25:26.588Z,89.5
2017-11-11T10:26:29.367Z,89.5
2017-11-11T10:27:31.792Z,89.8
2017-11-11T10:28:34.590Z,90
2017-11-11T10:29:37.008Z,90.1
2017-11-11T10:30:39.465Z,90.1
2017-11-11T10:31:41.961Z,90.1
2017-11-11T10:32:44.387Z,90
2017-11-11T10:33:46.836Z,90.1
2017-11-11T10:34:49.259Z,89.8
2017-11-11T10:35:51.694Z,90
2017-11-11T10:36:54.504Z,89.8
2017-11-11T10:37:56.927Z,89.7
2017-11-11T10:38:59.722Z,89.6
2017-11-11T10:40:02.161Z,89.8
2017-11-11T10:41:04.937Z,90
2017-11-11T10:42:07.365Z,90.1
2017-11-11T10:43:09.790Z,90
2017-11-11T10:44:12.585Z,90
2017-11-11T10:45:15.037Z,90
2017-11-11T10:46:17.486Z,90.1
2017-11-11T10:47:19.907Z,90.2
2017-11-11T10:48:22.351Z,90.1
2017-11-11T10:49:24.798Z,90.2
2017-11-11T10:50:27.212Z,90.3
2017-11-11T10:51:30.044Z,90.4
2017-11-11T10:52:32.473Z,90.5
2017-11-11T10:53:34.904Z,90.4
2017-11-11T10:54:37.667Z,90.5
2017-11-11T10:55:40.089Z,90.7
2017-11-11T10:56:42.514Z,90.7
2017-11-11T10:57:45.287Z,90.7
2017-11-11T10:58:48.070Z,90.7
2017-11-11T10:59:50.495Z,90.8
2017-11-11T11:00:53.300Z,90.9
2017-11-11T11:01:55.735Z,90.9
2017-11-11T11:02:58.162Z,91
2017-11-11T11:04:00.597Z,91
2017-11-11T11:05:03.016Z,90.8
2017-11-11T11:06:05.435Z,90.8
2017-11-11T11:07:08.221Z,90.8
2017-11-11T11:08:10.647Z,90.8
2017-11-11T11:09:13.450Z,90.8
2017-11-11T11:10:15.906Z,90.7
2017-11-11T11:11:18.340Z,90.7
2017-11-11T11:12:20.759Z,90.6
2017-11-11T11:13:23.184Z,90.4
2017-11-11T11:14:25.609Z,90.4
2017-11-11T11:15:28.032Z,90.4
2017-11-11T11:16:30.461Z,90.4
2017-11-11T11:17:32.893Z,90.4
2017-11-11T11:18:35.302Z,90.4
2017-11-11T11:19:38.438Z,90.4
2017-11-11T11:20:41.235Z,90.4
2017-11-11T11:21:44.018Z,90.4
2017-11-11T11:22:46.797Z,90.5
2017-11-11T11:23:49.218Z,90.5
2017-11-11T11:24:51.642Z,90.4
2017-11-11T11:25:54.192Z,90.2
2017-11-11T11:26:56.620Z,90.2
2017-11-11T11:27:59.059Z,90.2
2017-11-11T11:29:01.475Z,90.4
2017-11-11T11:30:03.903Z,90.4
2017-11-11T11:31:06.322Z,90.4
2017-11-11T11:32:09.110Z,90.4
2017-11-11T11:33:11.540Z,90.5
2017-11-11T11:34:13.962Z,90.6
2017-11-11T11:35:16.383Z,90.5
2017-11-11T11:36:18.830Z,90.5
2017-11-11T11:37:21.234Z,90.5
2017-11-11T11:38:23.659Z,90.5
2017-11-11T11:39:26.082Z,90.6
2017-11-11T11:40:28.500Z,90.5
2017-11-11T11:41:30.922Z,90.4
2017-11-11T11:42:33.367Z,90.5
2017-11-11T11:43:35.809Z,90.5
2017-11-11T11:44:38.237Z,90.4
2017-11-11T11:45:40.655Z,90.5
2017-11-11T11:46:43.086Z,90.5
2017-11-11T11:47:45.525Z,90.7
2017-11-11T11:48:47.946Z,90.8
2017-11-11T11:49:50.353Z,90.7
2017-11-11T11:50:52.775Z,90.6
2017-11-11T11:51:55.198Z,90.6
2017-11-11T11:52:57.621Z,90.6
2017-11-11T11:54:00.043Z,90.6
2017-11-11T11:55:02.460Z,90.5
2017-11-11T11:56:05.645Z,90.7
2017-11-11T11:57:08.071Z,90.8
2017-11-11T11:58:10.501Z,90.8
2017-11-11T11:59:12.928Z,90.8
2017-11-11T12:00:15.350Z,90.9
2017-11-11T12:01:17.777Z,90.9
2017-11-11T12:02:20.562Z,90.8
2017-11-11T12:03:22.987Z,90.8
2017-11-11T12:04:26.507Z,90.7
2017-11-11T12:05:29.289Z,90.6
2017-11-11T12:06:31.712Z,90.4
2017-11-11T12:07:34.500Z,90.5
2017-11-11T12:08:36.934Z,90.5
2017-11-11T12:09:39.353Z,90.7
2017-11-11T12:10:41.776Z,90.7
2017-11-11T12:11:44.210Z,90.7
2017-11-11T12:12:46.636Z,90.7
2017-11-11T12:13:49.053Z,90.9
2017-11-11T12:14:51.488Z,90.9
2017-11-11T12:15:53.949Z,90.9
2017-11-11T12:16:56.701Z,90.8
2017-11-11T12:17:59.128Z,90.8
2017-11-11T12:19:01.541Z,90.8
2017-11-11T12:20:03.962Z,90.7
2017-11-11T12:21:06.393Z,90.4
2017-11-11T12:22:08.816Z,90.4
2017-11-11T12:23:11.237Z,90.5
2017-11-11T12:24:13.708Z,90.7
2017-11-11T12:25:16.165Z,90.8
2017-11-11T12:26:18.973Z,90.6
2017-11-11T12:27:21.435Z,90.7
2017-11-11T12:28:23.889Z,90.8
2017-11-11T12:29:26.349Z,91.2
2017-11-11T12:30:29.175Z,91.3
2017-11-11T12:31:31.602Z,91.1
2017-11-11T12:32:34.029Z,91.1
2017-11-11T12:33:36.817Z,91
2017-11-11T12:34:39.275Z,90.9
2017-11-11T12:35:41.716Z,91
2017-11-11T12:36:44.164Z,91
2017-11-11T12:37:46.622Z,90.6
2017-11-11T12:38:49.063Z,90.2
2017-11-11T12:39:51.523Z,90.1
2017-11-11T12:40:53.972Z,90.3
2017-11-11T12:41:56.408Z,90.4
2017-11-11T12:42:58.846Z,90.3
2017-11-11T12:44:01.307Z,90.4
2017-11-11T12:45:03.762Z,90.5
2017-11-11T12:46:06.249Z,90.6
2017-11-11T12:47:08.782Z,90.6
2017-11-11T12:48:11.240Z,90.6
2017-11-11T12:49:14.089Z,90.7
2017-11-11T12:50:16.553Z,90.8
2017-11-11T12:51:19.403Z,90.9
2017-11-11T12:52:51.898Z,90.9
2017-11-11T12:53:54.277Z,90.6
2017-11-11T12:54:56.646Z,90.5
2017-11-11T12:55:59.013Z,90.6
2017-11-11T12:57:01.393Z,90.5
2017-11-11T12:58:03.772Z,90.4
2017-11-11T12:59:06.273Z,90.5
2017-11-11T13:00:08.644Z,90.6
2017-11-11T13:01:11.366Z,90.8
2017-11-11T13:02:13.738Z,90.6
2017-11-11T13:03:16.465Z,90.7
2017-11-11T13:04:18.844Z,90.7
2017-11-11T13:05:21.208Z,90.5
2017-11-11T13:06:23.578Z,90.3
2017-11-11T13:07:25.948Z,90.2
2017-11-11T13:08:28.330Z,90.3
2017-11-11T13:09:30.709Z,90.3
2017-11-11T13:10:33.081Z,90.2
2017-11-11T13:11:35.548Z,90.2
2017-11-11T13:12:38.810Z,90.3
2017-11-11T13:13:41.199Z,90.3
2017-11-11T13:14:43.918Z,90.1
2017-11-11T13:15:54.640Z,90.3
2017-11-11T13:16:58.950Z,90.3
2017-11-11T13:18:02.273Z,90.4
2017-11-11T13:19:09.638Z,90.5
2017-11-11T13:20:18.046Z,90.5
2017-11-11T13:21:20.413Z,90.3
2017-11-11T13:22:23.146Z,90.1
2017-11-11T13:23:25.517Z,90.1
2017-11-11T13:24:27.889Z,90.2
2017-11-11T13:25:30.266Z,90.3
2017-11-11T13:26:32.644Z,90.2
2017-11-11T13:27:35.018Z,90.3
2017-11-11T13:28:37.397Z,90.3
2017-11-11T13:29:40.116Z,90.2
2017-11-11T13:30:42.836Z,90.3
2017-11-11T13:31:45.306Z,89.5
2017-11-11T13:32:47.681Z,89.3
2017-11-11T13:33:50.409Z,89.2
2017-11-11T13:34:52.802Z,89.1
2017-11-11T13:35:55.164Z,89.3
2017-11-11T13:36:57.555Z,88.8
2017-11-11T13:37:59.922Z,88.5
2017-11-11T13:39:02.296Z,88.4
2017-11-11T13:40:04.675Z,88.5
2017-11-11T13:41:07.048Z,88
2017-11-11T13:42:09.422Z,88
2017-11-11T13:43:11.807Z,88.3
2017-11-11T13:44:14.170Z,88.4
2017-11-11T13:45:16.548Z,89.3
2017-11-11T13:46:19.271Z,89.5
2017-11-11T13:47:21.689Z,89.7
2017-11-11T13:48:24.056Z,89.8
2017-11-11T13:49:26.435Z,89.6
2017-11-11T13:50:28.820Z,89.9
2017-11-11T13:51:31.244Z,90
2017-11-11T13:52:33.665Z,90.1
2017-11-11T13:53:36.479Z,90.1
2017-11-11T13:54:38.907Z,90.1
2017-11-11T13:55:41.334Z,90